createdAt,value
2018-01-06T00:00:39.506Z,7.10
2018-01-06T00:03:07.030Z,7.10
2018-01-06T00:05:34.582Z,7.10
2018-01-06T00:08:02.874Z,7.10
2018-01-06T00:10:30.426Z,7.10
2018-01-06T00:12:57.946Z,7.10
2018-01-06T00:15:25.511Z,7.10
2018-01-06T00:17:53.050Z,7.10
2018-01-06T00:20:20.574Z,7.20
2018-01-06T00:22:48.118Z,7.20
2018-01-06T00:25:15.638Z,7.20
2018-01-06T00:27:43.186Z,7.20
2018-01-06T00:30:10.710Z,7.20
2018-01-06T00:32:38.250Z,7.20
2018-01-06T00:35:06.540Z,7.10
2018-01-06T00:37:34.086Z,7.10
2018-01-06T00:40:01.606Z,7.10
2018-01-06T00:42:29.183Z,7.00
2018-01-06T00:44:56.701Z,7.00
2018-01-06T00:47:25.026Z,7.00
2018-01-06T00:49:52.566Z,6.90
2018-01-06T00:52:20.110Z,7.00
2018-01-06T00:54:47.634Z,7.00
2018-01-06T00:57:16.099Z,7.00
2018-01-06T00:59:43.626Z,7.00
2018-01-06T01:02:11.173Z,6.90
2018-01-06T01:04:38.710Z,7.00
2018-01-06T01:07:07.030Z,6.90
2018-01-06T01:09:34.561Z,6.90
2018-01-06T01:12:02.123Z,6.90
2018-01-06T01:14:30.405Z,6.90
2018-01-06T01:16:57.979Z,6.90
2018-01-06T01:19:25.509Z,6.90
2018-01-06T01:21:53.826Z,6.90
2018-01-06T01:24:21.346Z,6.90
2018-01-06T01:26:49.666Z,6.90
2018-01-06T01:29:17.199Z,6.90
2018-01-06T01:31:44.727Z,7.00
2018-01-06T01:34:12.283Z,6.90
2018-01-06T01:36:39.802Z,6.90
2018-01-06T01:39:07.342Z,6.80
2018-01-06T01:41:34.867Z,6.80
2018-01-06T01:44:02.422Z,6.70
2018-01-06T01:46:29.946Z,6.70
2018-01-06T01:48:57.486Z,6.70
2018-01-06T01:51:25.011Z,6.70
2018-01-06T01:53:53.324Z,6.70
2018-01-06T01:56:20.845Z,6.70
2018-01-06T01:58:48.398Z,6.70
2018-01-06T02:01:15.928Z,6.70
2018-01-06T02:03:43.481Z,6.70
2018-01-06T02:06:11.006Z,6.70
2018-01-06T02:08:38.555Z,6.80
2018-01-06T02:11:06.847Z,6.80
2018-01-06T02:13:34.397Z,6.80
2018-01-06T02:16:02.688Z,7.00
2018-01-06T02:18:30.234Z,6.90
2018-01-06T02:20:58.525Z,7.00
2018-01-06T02:23:26.078Z,6.90
2018-01-06T02:25:53.610Z,7.00
2018-01-06T02:28:21.159Z,7.00
2018-01-06T02:30:48.679Z,7.00
2018-01-06T02:33:16.215Z,7.00
2018-01-06T02:35:43.769Z,7.10
2018-01-06T02:38:12.063Z,7.10
2018-01-06T02:40:39.613Z,7.10
2018-01-06T02:43:07.522Z,7.10
2018-01-06T02:45:35.111Z,7.10
2018-01-06T02:48:02.634Z,7.20
2018-01-06T02:50:30.195Z,7.20
2018-01-06T02:52:57.742Z,7.20
2018-01-06T02:55:25.315Z,7.20
2018-01-06T02:57:52.835Z,7.20
2018-01-06T03:00:20.374Z,7.20
2018-01-06T03:02:48.714Z,7.20
2018-01-06T03:05:16.262Z,7.20
2018-01-06T03:07:43.782Z,7.20
2018-01-06T03:10:12.098Z,7.20
2018-01-06T03:12:39.625Z,7.20
2018-01-06T03:15:07.970Z,7.20
2018-01-06T03:17:35.547Z,7.20
2018-01-06T03:20:04.002Z,7.20
2018-01-06T03:22:31.527Z,7.20
2018-01-06T03:24:59.074Z,7.20
2018-01-06T03:27:26.602Z,7.20
2018-01-06T03:29:54.166Z,7.20
2018-01-06T03:32:22.462Z,7.10
2018-01-06T03:34:49.985Z,7.10
2018-01-06T03:37:17.532Z,7.20
2018-01-06T03:39:45.067Z,7.20
2018-01-06T03:42:12.614Z,7.10
2018-01-06T03:44:40.134Z,7.10
2018-01-06T03:47:07.686Z,7.10
2018-01-06T03:49:35.203Z,7.10
2018-01-06T03:52:02.751Z,7.10
2018-01-06T03:54:30.278Z,7.10
2018-01-06T03:56:58.596Z,7.10
2018-01-06T03:59:26.121Z,7.10
2018-01-06T04:01:54.438Z,7.10
2018-01-06T04:04:21.954Z,7.10
2018-01-06T04:06:50.265Z,7.00
2018-01-06T04:09:17.809Z,7.00
2018-01-06T04:11:45.371Z,7.10
2018-01-06T04:14:12.897Z,7.10
2018-01-06T04:16:40.445Z,7.10
2018-01-06T04:19:07.962Z,7.10
2018-01-06T04:21:35.514Z,7.10
2018-01-06T04:24:03.038Z,7.10
2018-01-06T04:26:30.621Z,7.10
2018-01-06T04:28:58.911Z,7.10
2018-01-06T04:31:26.439Z,7.10
2018-01-06T04:33:53.987Z,7.10
2018-01-06T04:36:21.504Z,7.10
2018-01-06T04:38:49.050Z,7.20
2018-01-06T04:41:16.582Z,7.20
2018-01-06T04:43:44.903Z,7.20
2018-01-06T04:46:12.427Z,7.10
2018-01-06T04:48:40.750Z,7.20
2018-01-06T04:51:08.279Z,7.10
2018-01-06T04:53:35.823Z,7.20
2018-01-06T04:56:04.115Z,7.10
2018-01-06T04:58:31.666Z,7.10
2018-01-06T05:00:59.954Z,7.10
2018-01-06T05:03:27.516Z,7.00
2018-01-06T05:05:55.043Z,7.10
2018-01-06T05:08:22.591Z,7.10
2018-01-06T05:10:50.114Z,7.10
2018-01-06T05:13:17.710Z,7.00
2018-01-06T05:15:45.238Z,7.00
2018-01-06T05:18:12.784Z,7.10
2018-01-06T05:20:40.310Z,7.10
2018-01-06T05:23:08.627Z,7.00
2018-01-06T05:25:36.158Z,7.00
2018-01-06T05:28:04.446Z,7.00
2018-01-06T05:30:32.011Z,7.00
2018-01-06T05:32:59.542Z,7.10
2018-01-06T05:35:27.858Z,7.00
2018-01-06T05:37:55.399Z,7.00
2018-01-06T05:40:22.942Z,7.10
2018-01-06T05:42:51.230Z,7.10
2018-01-06T05:45:18.782Z,7.10
2018-01-06T05:47:47.074Z,7.10
2018-01-06T05:50:14.620Z,7.00
2018-01-06T05:52:42.158Z,7.10
2018-01-06T05:55:10.494Z,7.10
2018-01-06T05:57:38.016Z,7.10
2018-01-06T06:00:06.338Z,7.10
2018-01-06T06:02:33.858Z,7.10
2018-01-06T06:05:02.170Z,7.00
2018-01-06T06:07:29.693Z,7.10
2018-01-06T06:09:58.015Z,7.00
2018-01-06T06:12:25.541Z,7.00
2018-01-06T06:14:53.099Z,7.10
2018-01-06T06:17:20.630Z,7.00
2018-01-06T06:19:48.174Z,7.00
2018-01-06T06:22:15.696Z,7.00
2018-01-06T06:24:43.246Z,7.00
2018-01-06T06:27:10.775Z,7.00
2018-01-06T06:29:39.142Z,7.00
2018-01-06T06:52:07.523Z,6.80
2018-01-06T06:54:35.818Z,6.90
2018-01-06T06:57:03.362Z,6.80
2018-01-06T06:59:30.912Z,6.90
2018-01-06T07:01:58.464Z,6.90
2018-01-06T07:04:25.990Z,6.90
2018-01-06T07:06:54.304Z,6.90
2018-01-06T07:09:21.830Z,6.90
2018-01-06T07:11:50.159Z,6.90
2018-01-06T07:14:17.682Z,6.90
2018-01-06T07:16:45.239Z,6.90
2018-01-06T07:19:12.768Z,6.90
2018-01-06T07:21:40.330Z,6.90
2018-01-06T07:24:07.850Z,6.90
2018-01-06T07:26:35.402Z,6.90
2018-01-06T07:29:02.930Z,6.90
2018-01-06T07:31:31.241Z,6.90
2018-01-06T07:33:58.757Z,6.80
2018-01-06T07:36:27.046Z,6.80
2018-01-06T07:38:54.599Z,6.80
2018-01-06T07:41:22.886Z,6.80
2018-01-06T07:43:50.434Z,6.80
2018-01-06T07:46:18.717Z,6.80
2018-01-06T07:48:47.034Z,6.90
2018-01-06T07:51:14.561Z,6.90
2018-01-06T07:53:42.121Z,6.90
2018-01-06T07:56:09.646Z,6.80
2018-01-06T07:58:37.197Z,6.80
2018-01-06T08:01:04.734Z,6.70
2018-01-06T08:03:32.282Z,6.90
2018-01-06T08:05:59.805Z,7.00
2018-01-06T08:08:28.126Z,7.10
2018-01-06T08:10:55.649Z,7.10
2018-01-06T08:13:23.196Z,7.00
2018-01-06T08:15:51.488Z,7.00
2018-01-06T08:18:19.034Z,7.00
2018-01-06T08:20:47.324Z,7.10
2018-01-06T08:23:14.874Z,7.10
2018-01-06T08:25:43.168Z,7.20
2018-01-06T08:28:10.719Z,7.10
2018-01-06T08:30:38.242Z,7.20
2018-01-06T08:33:05.795Z,7.40
2018-01-06T08:35:33.319Z,7.40
2018-01-06T08:38:00.873Z,7.40
2018-01-06T08:40:28.394Z,7.30
2018-01-06T08:42:55.919Z,7.40
2018-01-06T08:45:23.461Z,7.40
2018-01-06T08:47:50.982Z,7.40
2018-01-06T08:50:19.297Z,7.20
2018-01-06T08:52:46.817Z,7.30
2018-01-06T08:55:15.142Z,7.30
2018-01-06T08:57:42.670Z,7.30
2018-01-06T09:00:10.214Z,7.60
2018-01-06T09:02:38.511Z,7.60
2018-01-06T09:05:06.059Z,7.60
2018-01-06T09:07:34.358Z,7.90
2018-01-06T09:10:01.914Z,7.90
2018-01-06T09:12:29.439Z,8.00
2018-01-06T09:15:05.231Z,7.70
2018-01-06T09:17:33.175Z,7.70
2018-01-06T09:20:01.490Z,8.00
2018-01-06T09:22:29.032Z,8.00
2018-01-06T09:24:56.577Z,8.00
2018-01-06T09:27:24.874Z,7.90
2018-01-06T09:29:52.430Z,7.90
2018-01-06T09:32:19.962Z,7.90
2018-01-06T09:34:48.276Z,8.20
2018-01-06T09:37:15.799Z,8.20
2018-01-06T09:39:44.126Z,8.20
2018-01-06T09:42:11.654Z,8.20
2018-01-06T09:44:39.181Z,8.20
2018-01-06T09:47:06.733Z,8.20
2018-01-06T09:49:34.266Z,8.10
2018-01-06T09:52:01.827Z,8.10
2018-01-06T09:54:29.456Z,8.10
2018-01-06T09:56:57.027Z,8.10
2018-01-06T09:59:24.574Z,8.10
2018-01-06T10:01:52.123Z,8.00
2018-01-06T10:04:20.446Z,8.60
2018-01-06T10:06:47.994Z,8.50
2018-01-06T10:09:15.516Z,8.50
2018-01-06T10:11:43.849Z,8.20
2018-01-06T10:14:11.402Z,8.10
2018-01-06T10:16:39.029Z,8.20
2018-01-06T10:19:06.563Z,8.20
2018-01-06T10:21:34.886Z,8.30
2018-01-06T10:24:02.421Z,8.20
2018-01-06T10:26:29.970Z,8.10
2018-01-06T10:28:58.262Z,8.10
2018-01-06T10:31:25.805Z,8.10
2018-01-06T10:33:54.094Z,8.20
2018-01-06T10:36:22.464Z,8.50
2018-01-06T10:38:50.007Z,8.50
2018-01-06T10:41:17.570Z,8.70
2018-01-06T10:43:45.095Z,8.70
2018-01-06T10:46:12.617Z,8.50
2018-01-06T10:48:40.175Z,8.20
2018-01-06T10:51:07.702Z,8.30
2018-01-06T10:53:35.257Z,8.50
2018-01-06T10:56:02.790Z,8.60
2018-01-06T10:58:30.338Z,8.80
2018-01-06T11:01:03.483Z,9.00
2018-01-06T11:03:31.802Z,8.80
2018-01-06T11:05:59.327Z,8.80
2018-01-06T11:08:27.647Z,8.50
2018-01-06T11:10:55.240Z,8.50
2018-01-06T11:13:22.786Z,8.50
2018-01-06T11:15:50.306Z,8.60
2018-01-06T11:18:17.855Z,8.50
2018-01-06T11:20:45.382Z,8.30
2018-01-06T11:23:12.938Z,8.20
2018-01-06T11:25:40.466Z,8.50
2018-01-06T11:28:08.009Z,8.80
2018-01-06T11:30:35.533Z,8.80
2018-01-06T11:33:03.856Z,9.40
2018-01-06T11:35:31.391Z,9.30
2018-01-06T11:37:58.938Z,9.50
2018-01-06T11:40:27.229Z,9.50
2018-01-06T11:42:54.774Z,9.50
2018-01-06T11:45:23.066Z,8.70
2018-01-06T11:47:50.634Z,8.70
2018-01-06T11:50:18.159Z,9.00
2018-01-06T11:52:46.490Z,9.10
2018-01-06T11:55:14.023Z,9.10
2018-01-06T11:57:41.550Z,9.20
2018-01-06T12:00:09.102Z,9.30
2018-01-06T12:02:36.637Z,9.00
2018-01-06T12:05:04.191Z,8.80
2018-01-06T12:07:31.706Z,8.80
2018-01-06T12:09:59.262Z,8.40
2018-01-06T12:12:27.556Z,8.30
2018-01-06T12:14:55.111Z,8.20
2018-01-06T12:17:23.398Z,8.40
2018-01-06T12:19:50.945Z,8.40
2018-01-06T12:22:19.556Z,8.70
2018-01-06T12:24:47.109Z,8.70
2018-01-06T12:27:14.629Z,8.80
2018-01-06T12:29:42.181Z,8.40
2018-01-06T12:32:10.498Z,8.10
2018-01-06T12:34:38.042Z,8.10
2018-01-06T12:37:06.330Z,8.40
2018-01-06T12:39:33.875Z,8.40
2018-01-06T12:42:02.163Z,8.20
2018-01-06T12:44:29.706Z,8.10
2018-01-06T12:46:58.003Z,8.30
2018-01-06T12:49:25.555Z,8.20
2018-01-06T12:51:53.848Z,8.30
2018-01-06T12:54:21.379Z,8.30
2018-01-06T12:56:49.700Z,8.70
2018-01-06T12:59:17.218Z,8.70
2018-01-06T13:01:45.544Z,8.60
2018-01-06T13:04:13.074Z,8.60
2018-01-06T13:06:40.618Z,8.80
2018-01-06T13:09:08.910Z,8.90
2018-01-06T13:11:36.454Z,8.90
2018-01-06T13:14:04.743Z,8.30
2018-01-06T13:16:32.298Z,8.30
2018-01-06T13:19:00.594Z,8.40
2018-01-06T13:21:28.141Z,8.30
2018-01-06T13:23:55.671Z,8.50
2018-01-06T13:26:23.222Z,8.60
2018-01-06T13:28:50.795Z,8.60
2018-01-06T13:31:18.309Z,8.50
2018-01-06T13:33:45.834Z,8.70
2018-01-06T13:36:13.386Z,8.70
2018-01-06T13:38:41.674Z,8.90
2018-01-06T13:41:09.223Z,8.80
2018-01-06T13:43:37.520Z,8.80
2018-01-06T13:46:05.072Z,8.70
2018-01-06T13:48:32.602Z,8.70
2018-01-06T13:51:00.119Z,8.70
2018-01-06T13:53:27.670Z,8.60
2018-01-06T13:55:55.197Z,8.70
2018-01-06T13:58:23.516Z,8.50
2018-01-06T14:00:51.055Z,8.50
2018-01-06T14:03:18.607Z,8.50
2018-01-06T14:05:46.139Z,8.40
2018-01-06T14:08:13.686Z,8.40
2018-01-06T14:10:41.223Z,8.40
2018-01-06T14:13:08.774Z,8.40
2018-01-06T14:15:36.294Z,8.40
2018-01-06T14:18:04.606Z,8.40
2018-01-06T14:20:32.138Z,8.30
2018-01-06T14:22:59.691Z,8.40
2018-01-06T14:25:27.981Z,8.40
2018-01-06T14:27:55.534Z,8.40
2018-01-06T14:30:23.826Z,8.20
2018-01-06T14:32:51.383Z,8.20
2018-01-06T14:35:18.910Z,8.30
2018-01-06T14:37:46.468Z,8.20
2018-01-06T14:40:14.003Z,8.20
2018-01-06T14:42:41.555Z,8.20
2018-01-06T14:45:09.096Z,8.10
2018-01-06T14:47:36.654Z,8.00
2018-01-06T14:50:04.183Z,7.90
2018-01-06T14:52:32.478Z,8.00
2018-01-06T14:55:00.033Z,8.00
2018-01-06T14:57:27.574Z,8.00
2018-01-06T14:59:55.895Z,8.00
2018-01-06T15:02:23.448Z,8.00
2018-01-06T15:04:51.007Z,7.80
2018-01-06T15:07:18.542Z,7.90
2018-01-06T15:09:46.100Z,7.90
2018-01-06T15:12:14.408Z,7.90
2018-01-06T15:14:41.966Z,7.90
2018-01-06T15:17:09.501Z,7.90
2018-01-06T15:19:37.064Z,8.00
2018-01-06T15:22:04.599Z,7.90
2018-01-06T15:24:32.931Z,8.00
2018-01-06T15:27:00.462Z,8.00
2018-01-06T15:29:28.006Z,8.00
2018-01-06T15:31:56.309Z,8.10
2018-01-06T15:34:23.866Z,8.10
2018-01-06T15:36:51.403Z,8.00
2018-01-06T15:39:19.734Z,8.00
2018-01-06T15:41:47.262Z,8.00
2018-01-06T15:44:14.840Z,8.10
2018-01-06T15:46:42.488Z,8.00
2018-01-06T15:49:10.014Z,8.00
2018-01-06T15:51:38.335Z,8.10
2018-01-06T15:54:06.014Z,8.10
2018-01-06T15:56:33.558Z,8.00
2018-01-06T15:59:01.077Z,8.00
2018-01-06T16:01:29.398Z,7.90
2018-01-06T16:03:56.923Z,7.90
2018-01-06T16:06:25.243Z,7.90
2018-01-06T16:08:52.774Z,7.90
2018-01-06T16:11:20.322Z,7.90
2018-01-06T16:13:48.614Z,7.80
2018-01-06T16:16:17.185Z,7.70
2018-01-06T16:18:44.718Z,7.70
2018-01-06T16:21:14.352Z,7.70
2018-01-06T16:23:42.642Z,7.70
2018-01-06T16:26:10.201Z,7.70
2018-01-06T16:28:37.735Z,7.70
2018-01-06T16:31:07.386Z,7.70
2018-01-06T16:33:34.914Z,7.70
2018-01-06T16:36:03.247Z,7.60
2018-01-06T16:38:31.732Z,7.60
2018-01-06T16:40:59.301Z,7.60
2018-01-06T16:43:26.835Z,7.60
2018-01-06T16:45:54.386Z,7.70
2018-01-06T16:48:21.929Z,7.70
2018-01-06T16:50:49.464Z,7.70
2018-01-06T16:53:17.799Z,7.70
2018-01-06T16:55:45.379Z,7.60
2018-01-06T16:58:12.950Z,7.60
2018-01-06T17:00:40.481Z,7.60
2018-01-06T17:03:08.030Z,7.60
2018-01-06T17:05:35.710Z,7.50
2018-01-06T17:08:03.258Z,7.50
2018-01-06T17:10:30.782Z,7.50
2018-01-06T17:12:58.375Z,7.60
2018-01-06T17:15:25.901Z,7.50
2018-01-06T17:17:53.470Z,7.40
2018-01-06T17:20:20.998Z,7.50
2018-01-06T17:22:49.317Z,7.40
2018-01-06T17:25:16.899Z,7.40
2018-01-06T17:27:44.463Z,7.40
2018-01-06T17:30:11.998Z,7.40
2018-01-06T17:32:39.658Z,7.40
2018-01-06T17:35:07.982Z,7.40
2018-01-06T17:37:35.546Z,7.40
2018-01-06T17:40:03.120Z,7.40
2018-01-06T17:42:31.526Z,7.40
2018-01-06T17:44:59.062Z,7.40
2018-01-06T17:47:28.291Z,7.40
2018-01-06T17:49:55.843Z,7.40
2018-01-06T17:52:23.373Z,7.50
2018-01-06T17:54:51.694Z,7.50
2018-01-06T17:57:19.270Z,7.50
2018-01-06T17:59:46.825Z,7.50
2018-01-06T18:02:14.397Z,7.40
2018-01-06T18:04:41.945Z,7.50
2018-01-06T18:07:09.466Z,7.50
2018-01-06T18:09:37.785Z,7.50
2018-01-06T18:12:06.137Z,7.50
2018-01-06T18:14:34.438Z,7.50
2018-01-06T18:17:01.971Z,7.40
2018-01-06T18:19:29.522Z,7.40
2018-01-06T18:21:57.049Z,7.40
2018-01-06T18:24:24.602Z,7.40
2018-01-06T18:26:52.138Z,7.40
2018-01-06T18:29:19.691Z,7.50
2018-01-06T18:31:47.222Z,7.50
2018-01-06T18:34:14.779Z,7.40
2018-01-06T18:36:42.318Z,7.40
2018-01-06T18:39:10.647Z,7.30
2018-01-06T18:41:38.180Z,7.30
2018-01-06T18:44:06.159Z,7.40
2018-01-06T18:46:33.694Z,7.40
2018-01-06T18:49:01.995Z,7.40
2018-01-06T18:51:29.549Z,7.40
2018-01-06T18:53:57.073Z,7.40
2018-01-06T18:56:24.628Z,7.40
2018-01-06T18:58:52.159Z,7.40
2018-01-06T19:01:19.709Z,7.40
2018-01-06T19:03:47.241Z,7.40
2018-01-06T19:06:14.795Z,7.40
2018-01-06T19:08:42.326Z,7.30
2018-01-06T19:11:09.882Z,7.40
2018-01-06T19:13:37.413Z,7.40
2018-01-06T19:16:04.968Z,7.40
2018-01-06T19:18:32.499Z,7.30
2018-01-06T19:21:00.061Z,7.30
2018-01-06T19:23:27.591Z,7.40
2018-01-06T19:25:55.157Z,7.40
2018-01-06T19:28:23.456Z,7.30
2018-01-06T19:30:51.026Z,7.30
2018-01-06T19:33:18.670Z,7.30
2018-01-06T19:35:46.985Z,7.30
2018-01-06T19:38:14.511Z,7.30
2018-01-06T19:40:42.061Z,7.30
2018-01-06T19:43:10.366Z,7.20
2018-01-06T19:45:37.934Z,7.20
2018-01-06T19:48:05.459Z,7.30
2018-01-06T19:50:33.755Z,7.30
2018-01-06T19:53:01.313Z,7.30
2018-01-06T19:55:28.846Z,7.30
2018-01-06T19:57:57.165Z,7.20
2018-01-06T20:00:24.700Z,7.20
2018-01-06T20:02:53.019Z,7.20
2018-01-06T20:05:20.546Z,7.20
2018-01-06T20:07:48.098Z,7.30
2018-01-06T20:10:15.630Z,7.30
2018-01-06T20:12:43.183Z,7.30
2018-01-06T20:15:10.715Z,7.20
2018-01-06T20:17:38.261Z,7.30
2018-01-06T20:20:05.788Z,7.20
2018-01-06T20:22:34.097Z,7.20
2018-01-06T20:25:01.640Z,7.20
2018-01-06T20:27:29.186Z,7.20
2018-01-06T20:29:57.535Z,7.10
2018-01-06T20:32:25.090Z,7.10
2018-01-06T20:34:52.627Z,7.10
2018-01-06T20:37:20.942Z,7.20
2018-01-06T20:39:48.476Z,7.20
2018-01-06T20:42:16.034Z,7.20
2018-01-06T20:44:43.564Z,7.10
2018-01-06T20:47:11.506Z,7.10
2018-01-06T20:49:39.798Z,7.10
2018-01-06T20:52:07.369Z,7.10
2018-01-06T20:54:35.658Z,7.10
2018-01-06T20:57:03.187Z,7.10
2018-01-06T20:59:30.739Z,7.10
2018-01-06T21:01:59.030Z,7.00
2018-01-06T21:04:26.584Z,7.00
2018-01-06T21:06:54.114Z,7.00
2018-01-06T21:09:21.658Z,6.90
2018-01-06T21:11:49.189Z,6.90
2018-01-06T21:14:16.742Z,7.00
2018-01-06T21:16:44.275Z,7.00
2018-01-06T21:19:12.586Z,7.00
2018-01-06T21:21:40.110Z,7.00
2018-01-06T21:24:08.420Z,7.00
2018-01-06T21:26:35.941Z,7.00
2018-01-06T21:29:04.260Z,7.00
2018-01-06T21:31:31.790Z,7.00
2018-01-06T21:33:59.347Z,7.10
2018-01-06T21:36:27.638Z,7.00
2018-01-06T21:38:55.187Z,7.00
2018-01-06T21:41:24.032Z,7.00
2018-01-06T21:43:51.585Z,7.00
2018-01-06T21:46:19.148Z,7.00
2018-01-06T21:48:46.734Z,7.00
2018-01-06T21:51:14.270Z,6.90
2018-01-06T21:53:41.890Z,6.90
2018-01-06T21:56:09.537Z,6.90
2018-01-06T21:58:37.138Z,6.90
2018-01-06T22:01:04.685Z,6.80
2018-01-06T22:03:32.354Z,6.80
2018-01-06T22:05:59.994Z,6.80
2018-01-06T22:08:27.547Z,6.80
2018-01-06T22:10:55.098Z,6.80
2018-01-06T22:13:23.680Z,6.70
2018-01-06T22:15:51.340Z,6.60
2018-01-06T22:18:19.658Z,6.60
2018-01-06T22:20:47.274Z,6.60
2018-01-06T22:23:15.569Z,6.70
2018-01-06T22:25:43.361Z,6.70
2018-01-06T22:28:12.008Z,6.60
2018-01-06T22:30:40.332Z,6.60
2018-01-06T22:33:08.650Z,6.60
2018-01-06T22:35:36.206Z,6.70
2018-01-06T22:38:03.730Z,6.60
2018-01-06T22:40:31.296Z,6.60
2018-01-06T22:42:58.826Z,6.70
2018-01-06T22:45:26.374Z,6.60
2018-01-06T22:47:54.124Z,6.60
2018-01-06T22:50:22.442Z,6.50
2018-01-06T22:52:50.013Z,6.50
2018-01-06T22:55:17.552Z,6.60
2018-01-06T22:57:45.102Z,6.60
2018-01-06T23:00:12.627Z,6.60
2018-01-06T23:02:40.174Z,6.50
2018-01-06T23:05:07.697Z,6.50
2018-01-06T23:07:35.462Z,6.50
2018-01-06T23:10:02.977Z,6.40
2018-01-06T23:12:30.567Z,6.40
2018-01-06T23:14:58.125Z,6.40
2018-01-06T23:17:25.675Z,6.50
2018-01-06T23:19:53.358Z,6.40
2018-01-06T23:22:20.930Z,6.40
2018-01-06T23:24:48.642Z,6.40
2018-01-06T23:27:16.275Z,6.40
2018-01-06T23:29:43.894Z,6.40
2018-01-06T23:32:11.436Z,6.40
2018-01-06T23:34:38.975Z,6.40
2018-01-06T23:37:06.751Z,6.40
2018-01-06T23:39:35.046Z,6.30
2018-01-06T23:42:02.763Z,6.30
2018-01-06T23:44:30.372Z,6.30
2018-01-06T23:46:57.914Z,6.20
2018-01-06T23:49:26.214Z,6.20
2018-01-06T23:51:53.759Z,6.20
2018-01-06T23:54:22.046Z,6.30
2018-01-06T23:56:49.566Z,6.30
2018-01-06T23:59:17.121Z,6.20
